首页
METAR-TAF:

METAR-TAF

机场 :

東京國際機場

东京国际机场, 日本

纬度: 35-33N, 经度: 139-47E, 海拔: 5米

当前天气观测

该预报发布于38分钟前的00:30 UTC
风速6节,风向东南,在之间变化
温度 31°C
湿度 75%
气压 1010 hPa
能见度10公里或以上
少量云层高于2000英尺
多云

METAR: RJTT 180030Z 13006KT 100V180 9999 FEW020 BKN/// 31/26 Q1010 NOSIG

时间: 10:08 (01:08 UTC)

预报

该预报发布于2小时和3分钟前的23:05 UTC
预报有效从18日的 00点(UTC)到 19日的 06点(UTC)
风速8节,风向
能见度10公里或以上
少量云层高于2000英尺
成为
从 18日的 03点(UTC)到 18日的 05点(UTC)
风速18节,风向
成为
从 18日的 18点(UTC)到 18日的 21点(UTC)
风速6节,风向西南
成为
从 19日的 00点(UTC)到 19日的 03点(UTC)
风速16节,风向

TAF: RJTT 172305Z 1800/1906 18008KT 9999 FEW020 BECMG 1803/1805 18018KT BECMG 1818/1821 23006KT BECMG 1900/1903 18016KT

超过4000个机场的气象观测和天气预报(METAR&TAF报告)。

可查询的气象台以黄色和红色小点在地图上表示。

将鼠标移到小点上方,可查看气象台名称。

然后点击查看天气观测和预报。

如需切换地图:点击带黑十字的绿色按钮放大地图;点击带横线的绿色按钮缩小地图;或者点击绿色箭头查看邻近地区的地图。


METAR-TAF: